sensor_id;sensor_type;location;lat;lon;timestamp;temperature;humidity
13711;DHT22;6927;51.256;9.410;2022-12-11T00:00:38;-2.50;99.90
13711;DHT22;6927;51.256;9.410;2022-12-11T00:03:11;-2.50;99.90
13711;DHT22;6927;51.256;9.410;2022-12-11T00:05:44;-2.50;99.90
13711;DHT22;6927;51.256;9.410;2022-12-11T00:08:11;-2.50;99.90
13711;DHT22;6927;51.256;9.410;2022-12-11T00:10:37;-2.40;99.90
13711;DHT22;6927;51.256;9.410;2022-12-11T00:13:05;-2.40;99.90
13711;DHT22;6927;51.256;9.410;2022-12-11T00:15:33;-2.30;99.90
13711;DHT22;6927;51.256;9.410;2022-12-11T00:18:02;-2.30;99.90
13711;DHT22;6927;51.256;9.410;2022-12-11T00:20:28;-2.30;99.90
13711;DHT22;6927;51.256;9.410;2022-12-11T00:22:53;-2.30;99.90
13711;DHT22;6927;51.256;9.410;2022-12-11T00:25:25;-2.20;99.90
13711;DHT22;6927;51.256;9.410;2022-12-11T00:27:51;-2.20;99.90
13711;DHT22;6927;51.256;9.410;2022-12-11T00:30:16;-2.20;99.90
13711;DHT22;6927;51.256;9.410;2022-12-11T00:32:50;-2.20;99.90
13711;DHT22;6927;51.256;9.410;2022-12-11T00:35:16;-2.20;99.90
13711;DHT22;6927;51.256;9.410;2022-12-11T00:37:44;-2.10;99.90
13711;DHT22;6927;51.256;9.410;2022-12-11T00:40:10;-2.00;99.90
13711;DHT22;6927;51.256;9.410;2022-12-11T00:42:36;-2.00;99.90
13711;DHT22;6927;51.256;9.410;2022-12-11T00:45:11;-2.10;99.90
13711;DHT22;6927;51.256;9.410;2022-12-11T00:47:49;-2.00;99.90
13711;DHT22;6927;51.256;9.410;2022-12-11T00:50:21;-1.90;99.90
13711;DHT22;6927;51.256;9.410;2022-12-11T00:52:46;-1.90;99.90
13711;DHT22;6927;51.256;9.410;2022-12-11T00:55:18;-1.90;99.90
13711;DHT22;6927;51.256;9.410;2022-12-11T00:57:44;-1.90;99.90
13711;DHT22;6927;51.256;9.410;2022-12-11T01:00:30;-1.90;99.90
13711;DHT22;6927;51.256;9.410;2022-12-11T01:03:09;-1.90;99.90
13711;DHT22;6927;51.256;9.410;2022-12-11T01:05:37;-1.80;99.90
13711;DHT22;6927;51.256;9.410;2022-12-11T01:11:15;-1.80;99.90
13711;DHT22;6927;51.256;9.410;2022-12-11T01:13:53;-1.80;99.90
13711;DHT22;6927;51.256;9.410;2022-12-11T01:16:56;-1.80;99.90
13711;DHT22;6927;51.256;9.410;2022-12-11T01:19:37;-1.80;99.90
13711;DHT22;6927;51.256;9.410;2022-12-11T01:22:13;-1.70;99.90
13711;DHT22;6927;51.256;9.410;2022-12-11T01:25:14;-1.70;99.90
13711;DHT22;6927;51.256;9.410;2022-12-11T01:27:54;-1.70;99.90
13711;DHT22;6927;51.256;9.410;2022-12-11T01:30:21;-1.70;99.90
13711;DHT22;6927;51.256;9.410;2022-12-11T01:33:00;-1.70;99.90
13711;DHT22;6927;51.256;9.410;2022-12-11T01:35:38;-1.70;99.90
13711;DHT22;6927;51.256;9.410;2022-12-11T01:38:36;-1.60;99.90
13711;DHT22;6927;51.256;9.410;2022-12-11T01:41:04;-1.70;99.90
13711;DHT22;6927;51.256;9.410;2022-12-11T01:43:57;-1.60;99.90
13711;DHT22;6927;51.256;9.410;2022-12-11T01:46:36;-1.60;99.90
13711;DHT22;6927;51.256;9.410;2022-12-11T01:49:20;-1.60;99.90
13711;DHT22;6927;51.256;9.410;2022-12-11T01:55:39;-1.60;99.90
13711;DHT22;6927;51.256;9.410;2022-12-11T01:58:17;-1.60;99.90
13711;DHT22;6927;51.256;9.410;2022-12-11T02:00:44;-1.60;99.90
13711;DHT22;6927;51.256;9.410;2022-12-11T02:03:42;-1.60;99.90
13711;DHT22;6927;51.256;9.410;2022-12-11T02:06:46;-1.50;99.90
13711;DHT22;6927;51.256;9.410;2022-12-11T02:09:49;-1.50;99.90
13711;DHT22;6927;51.256;9.410;2022-12-11T02:21:18;-1.50;99.90
13711;DHT22;6927;51.256;9.410;2022-12-11T02:24:14;-1.40;99.90
13711;DHT22;6927;51.256;9.410;2022-12-11T02:30:14;-1.40;99.90
13711;DHT22;6927;51.256;9.410;2022-12-11T02:33:00;-1.40;99.90
13711;DHT22;6927;51.256;9.410;2022-12-11T02:35:47;-1.40;99.90
13711;DHT22;6927;51.256;9.410;2022-12-11T02:41:17;-1.30;99.90
13711;DHT22;6927;51.256;9.410;2022-12-11T02:44:28;-1.40;99.90
13711;DHT22;6927;51.256;9.410;2022-12-11T02:56:15;-1.50;99.90
13711;DHT22;6927;51.256;9.410;2022-12-11T02:58:57;-1.50;99.90
13711;DHT22;6927;51.256;9.410;2022-12-11T03:01:30;-1.40;99.90
13711;DHT22;6927;51.256;9.410;2022-12-11T03:03:58;-1.40;99.90
13711;DHT22;6927;51.256;9.410;2022-12-11T03:06:30;-1.30;99.90
13711;DHT22;6927;51.256;9.410;2022-12-11T03:09:00;-1.40;99.90
13711;DHT22;6927;51.256;9.410;2022-12-11T03:11:26;-1.40;99.90
13711;DHT22;6927;51.256;9.410;2022-12-11T03:13:54;-1.30;99.90
13711;DHT22;6927;51.256;9.410;2022-12-11T03:22:39;-1.30;99.90
13711;DHT22;6927;51.256;9.410;2022-12-11T03:25:51;-1.30;99.90
13711;DHT22;6927;51.256;9.410;2022-12-11T03:28:58;-1.30;99.90
13711;DHT22;6927;51.256;9.410;2022-12-11T03:32:08;-1.30;99.90
13711;DHT22;6927;51.256;9.410;2022-12-11T03:42:16;-1.30;99.90
13711;DHT22;6927;51.256;9.410;2022-12-11T03:45:06;-1.20;99.90
13711;DHT22;6927;51.256;9.410;2022-12-11T03:48:17;-1.20;99.90
13711;DHT22;6927;51.256;9.410;2022-12-11T03:51:18;-1.10;99.90
13711;DHT22;6927;51.256;9.410;2022-12-11T04:00:07;-1.10;99.90
13711;DHT22;6927;51.256;9.410;2022-12-11T04:03:10;-1.10;99.90
13711;DHT22;6927;51.256;9.410;2022-12-11T04:09:43;-1.10;99.90
13711;DHT22;6927;51.256;9.410;2022-12-11T04:15:24;-1.20;99.90
13711;DHT22;6927;51.256;9.410;2022-12-11T04:18:05;-1.20;99.90
13711;DHT22;6927;51.256;9.410;2022-12-11T04:21:01;-1.20;99.90
13711;DHT22;6927;51.256;9.410;2022-12-11T04:24:17;-1.20;99.90
13711;DHT22;6927;51.256;9.410;2022-12-11T04:30:34;-1.10;99.90
13711;DHT22;6927;51.256;9.410;2022-12-11T04:33:30;-1.10;99.90
13711;DHT22;6927;51.256;9.410;2022-12-11T04:36:13;-1.10;99.90
13711;DHT22;6927;51.256;9.410;2022-12-11T04:39:08;-1.10;99.90
13711;DHT22;6927;51.256;9.410;2022-12-11T04:41:57;-1.10;99.90
13711;DHT22;6927;51.256;9.410;2022-12-11T04:45:00;-1.10;99.90
13711;DHT22;6927;51.256;9.410;2022-12-11T04:47:53;-1.10;99.90
13711;DHT22;6927;51.256;9.410;2022-12-11T04:57:12;-1.10;99.90
13711;DHT22;6927;51.256;9.410;2022-12-11T04:59:59;-1.10;99.90
13711;DHT22;6927;51.256;9.410;2022-12-11T05:06:30;-1.10;99.90
13711;DHT22;6927;51.256;9.410;2022-12-11T05:11:44;-1.20;99.90
13711;DHT22;6927;51.256;9.410;2022-12-11T05:14:24;-1.20;99.90
13711;DHT22;6927;51.256;9.410;2022-12-11T05:17:17;-1.10;99.90
13711;DHT22;6927;51.256;9.410;2022-12-11T05:23:57;-1.10;99.90
13711;DHT22;6927;51.256;9.410;2022-12-11T05:26:59;-1.10;99.90
13711;DHT22;6927;51.256;9.410;2022-12-11T05:33:42;-1.10;99.90
13711;DHT22;6927;51.256;9.410;2022-12-11T05:36:33;-1.10;99.90
13711;DHT22;6927;51.256;9.410;2022-12-11T05:49:44;-1.00;99.90
13711;DHT22;6927;51.256;9.410;2022-12-11T05:52:27;-1.00;99.90
13711;DHT22;6927;51.256;9.410;2022-12-11T05:55:02;-1.00;99.90
13711;DHT22;6927;51.256;9.410;2022-12-11T05:57:43;-1.00;99.90
13711;DHT22;6927;51.256;9.410;2022-12-11T06:03:51;-0.90;99.90
13711;DHT22;6927;51.256;9.410;2022-12-11T06:06:40;-1.00;99.90
13711;DHT22;6927;51.256;9.410;2022-12-11T06:09:20;-1.00;99.90
13711;DHT22;6927;51.256;9.410;2022-12-11T06:12:07;-1.00;99.90
13711;DHT22;6927;51.256;9.410;2022-12-11T06:14:51;-1.00;99.90
13711;DHT22;6927;51.256;9.410;2022-12-11T06:20:43;-1.00;99.90
13711;DHT22;6927;51.256;9.410;2022-12-11T06:23:08;-0.90;99.90
13711;DHT22;6927;51.256;9.410;2022-12-11T06:25:34;-1.00;99.90
13711;DHT22;6927;51.256;9.410;2022-12-11T06:28:02;-1.00;99.90
13711;DHT22;6927;51.256;9.410;2022-12-11T06:30:28;-1.00;99.90
13711;DHT22;6927;51.256;9.410;2022-12-11T06:32:53;-1.00;99.90
13711;DHT22;6927;51.256;9.410;2022-12-11T06:35:19;-1.00;99.90
13711;DHT22;6927;51.256;9.410;2022-12-11T06:37:44;-1.00;99.90
13711;DHT22;6927;51.256;9.410;2022-12-11T06:40:10;-1.00;99.90
13711;DHT22;6927;51.256;9.410;2022-12-11T06:42:37;-1.00;99.90
13711;DHT22;6927;51.256;9.410;2022-12-11T06:45:03;-1.00;99.90
13711;DHT22;6927;51.256;9.410;2022-12-11T06:47:29;-1.00;99.90
13711;DHT22;6927;51.256;9.410;2022-12-11T06:49:55;-1.00;99.90
13711;DHT22;6927;51.256;9.410;2022-12-11T06:52:22;-1.00;99.90
13711;DHT22;6927;51.256;9.410;2022-12-11T06:54:48;-1.00;99.90
13711;DHT22;6927;51.256;9.410;2022-12-11T06:57:15;-1.00;99.90
13711;DHT22;6927;51.256;9.410;2022-12-11T06:59:41;-1.00;99.90
13711;DHT22;6927;51.256;9.410;2022-12-11T07:02:11;-1.00;99.90
13711;DHT22;6927;51.256;9.410;2022-12-11T07:04:38;-1.00;99.90
13711;DHT22;6927;51.256;9.410;2022-12-11T07:07:04;-1.10;99.90
13711;DHT22;6927;51.256;9.410;2022-12-11T07:09:30;-1.10;99.90
13711;DHT22;6927;51.256;9.410;2022-12-11T07:11:55;-1.10;99.90
13711;DHT22;6927;51.256;9.410;2022-12-11T07:14:30;-1.10;99.90
13711;DHT22;6927;51.256;9.410;2022-12-11T07:16:59;-1.10;99.90
13711;DHT22;6927;51.256;9.410;2022-12-11T07:22:46;-1.10;99.90
13711;DHT22;6927;51.256;9.410;2022-12-11T07:25:38;-1.10;99.90
13711;DHT22;6927;51.256;9.410;2022-12-11T07:28:29;-1.00;99.90
13711;DHT22;6927;51.256;9.410;2022-12-11T07:31:22;-1.00;99.90
13711;DHT22;6927;51.256;9.410;2022-12-11T07:33:56;-1.00;99.90
13711;DHT22;6927;51.256;9.410;2022-12-11T07:36:26;-1.10;99.90
13711;DHT22;6927;51.256;9.410;2022-12-11T07:39:01;-1.10;99.90
13711;DHT22;6927;51.256;9.410;2022-12-11T07:41:32;-1.10;99.90
13711;DHT22;6927;51.256;9.410;2022-12-11T07:44:03;-1.10;99.90
13711;DHT22;6927;51.256;9.410;2022-12-11T07:46:32;-1.10;99.90
13711;DHT22;6927;51.256;9.410;2022-12-11T07:49:05;-1.00;99.90
13711;DHT22;6927;51.256;9.410;2022-12-11T07:51:35;-1.00;99.90
13711;DHT22;6927;51.256;9.410;2022-12-11T07:54:07;-1.00;99.90
13711;DHT22;6927;51.256;9.410;2022-12-11T07:56:43;-1.00;99.90
13711;DHT22;6927;51.256;9.410;2022-12-11T08:02:06;-0.90;99.90
13711;DHT22;6927;51.256;9.410;2022-12-11T08:04:34;-0.90;99.90
13711;DHT22;6927;51.256;9.410;2022-12-11T08:07:00;-0.90;99.90
13711;DHT22;6927;51.256;9.410;2022-12-11T08:09:26;-0.90;99.90
13711;DHT22;6927;51.256;9.410;2022-12-11T08:11:53;-0.90;99.90
13711;DHT22;6927;51.256;9.410;2022-12-11T08:14:21;-0.80;99.90
13711;DHT22;6927;51.256;9.410;2022-12-11T08:16:50;-0.80;99.90
13711;DHT22;6927;51.256;9.410;2022-12-11T08:19:25;-0.80;99.90
13711;DHT22;6927;51.256;9.410;2022-12-11T08:21:52;-0.80;99.90
13711;DHT22;6927;51.256;9.410;2022-12-11T08:24:17;-0.80;99.90
13711;DHT22;6927;51.256;9.410;2022-12-11T08:26:51;-0.80;99.90
13711;DHT22;6927;51.256;9.410;2022-12-11T08:29:22;-0.80;99.90
13711;DHT22;6927;51.256;9.410;2022-12-11T08:31:48;-0.70;99.90
13711;DHT22;6927;51.256;9.410;2022-12-11T08:34:16;-0.70;99.90
13711;DHT22;6927;51.256;9.410;2022-12-11T08:37:22;-0.70;99.90
13711;DHT22;6927;51.256;9.410;2022-12-11T08:39:59;-0.70;99.90
13711;DHT22;6927;51.256;9.410;2022-12-11T08:42:51;-0.70;99.90
13711;DHT22;6927;51.256;9.410;2022-12-11T08:45:22;-0.70;99.90
13711;DHT22;6927;51.256;9.410;2022-12-11T08:47:51;-0.80;99.90
13711;DHT22;6927;51.256;9.410;2022-12-11T08:50:36;-0.70;99.90
13711;DHT22;6927;51.256;9.410;2022-12-11T08:53:02;-0.70;99.90
13711;DHT22;6927;51.256;9.410;2022-12-11T08:55:31;-0.70;99.90
13711;DHT22;6927;51.256;9.410;2022-12-11T08:57:59;-0.70;99.90
13711;DHT22;6927;51.256;9.410;2022-12-11T09:00:25;-0.70;99.90
13711;DHT22;6927;51.256;9.410;2022-12-11T09:02:51;-0.70;99.90
13711;DHT22;6927;51.256;9.410;2022-12-11T09:05:22;-0.70;99.90
13711;DHT22;6927;51.256;9.410;2022-12-11T09:07:48;-0.70;99.90
13711;DHT22;6927;51.256;9.410;2022-12-11T09:10:17;-0.80;99.90
13711;DHT22;6927;51.256;9.410;2022-12-11T09:12:46;-0.80;99.90
13711;DHT22;6927;51.256;9.410;2022-12-11T09:15:13;-0.80;99.90
13711;DHT22;6927;51.256;9.410;2022-12-11T09:17:45;-0.80;99.90
13711;DHT22;6927;51.256;9.410;2022-12-11T09:20:14;-0.70;99.90
13711;DHT22;6927;51.256;9.410;2022-12-11T09:22:47;-0.70;99.90
13711;DHT22;6927;51.256;9.410;2022-12-11T09:25:25;-0.70;99.90
13711;DHT22;6927;51.256;9.410;2022-12-11T09:28:13;-0.70;99.90
13711;DHT22;6927;51.256;9.410;2022-12-11T09:33:45;-0.70;99.90
13711;DHT22;6927;51.256;9.410;2022-12-11T09:36:15;-0.60;99.90
13711;DHT22;6927;51.256;9.410;2022-12-11T09:38:41;-0.60;99.90
13711;DHT22;6927;51.256;9.410;2022-12-11T09:46:56;-0.60;99.90
13711;DHT22;6927;51.256;9.410;2022-12-11T09:49:42;-0.60;99.90
13711;DHT22;6927;51.256;9.410;2022-12-11T09:52:33;-0.60;99.90
13711;DHT22;6927;51.256;9.410;2022-12-11T09:55:05;-0.50;99.90
13711;DHT22;6927;51.256;9.410;2022-12-11T10:00:56;-0.50;99.90
13711;DHT22;6927;51.256;9.410;2022-12-11T10:03:37;-0.50;99.90
13711;DHT22;6927;51.256;9.410;2022-12-11T10:18:21;-0.80;99.90
13711;DHT22;6927;51.256;9.410;2022-12-11T10:21:25;-0.90;99.90
13711;DHT22;6927;51.256;9.410;2022-12-11T10:23:58;-1.00;99.90
13711;DHT22;6927;51.256;9.410;2022-12-11T10:26:27;-0.90;99.90
13711;DHT22;6927;51.256;9.410;2022-12-11T10:28:59;-0.90;99.90
13711;DHT22;6927;51.256;9.410;2022-12-11T10:31:55;-0.90;99.90
13711;DHT22;6927;51.256;9.410;2022-12-11T10:34:58;-1.00;99.90
13711;DHT22;6927;51.256;9.410;2022-12-11T10:43:57;-1.00;99.90
13711;DHT22;6927;51.256;9.410;2022-12-11T10:47:22;-1.10;99.90
13711;DHT22;6927;51.256;9.410;2022-12-11T10:56:57;-1.10;99.90
13711;DHT22;6927;51.256;9.410;2022-12-11T11:03:17;-1.10;99.90
13711;DHT22;6927;51.256;9.410;2022-12-11T11:09:02;-1.10;99.90
13711;DHT22;6927;51.256;9.410;2022-12-11T11:11:33;-1.00;99.90
13711;DHT22;6927;51.256;9.410;2022-12-11T11:14:16;-1.00;99.90
13711;DHT22;6927;51.256;9.410;2022-12-11T11:16:49;-1.00;99.90
13711;DHT22;6927;51.256;9.410;2022-12-11T11:19:38;-1.00;99.90
13711;DHT22;6927;51.256;9.410;2022-12-11T11:22:14;-0.90;99.90
13711;DHT22;6927;51.256;9.410;2022-12-11T11:24:44;-1.00;99.90
13711;DHT22;6927;51.256;9.410;2022-12-11T11:30:33;-0.90;99.90
13711;DHT22;6927;51.256;9.410;2022-12-11T11:33:10;-1.00;99.90
13711;DHT22;6927;51.256;9.410;2022-12-11T11:35:52;-1.00;99.90
13711;DHT22;6927;51.256;9.410;2022-12-11T11:38:40;-0.90;99.90
13711;DHT22;6927;51.256;9.410;2022-12-11T11:41:12;-0.80;99.90
13711;DHT22;6927;51.256;9.410;2022-12-11T11:49:43;-0.80;99.90
13711;DHT22;6927;51.256;9.410;2022-12-11T11:55:51;-0.80;99.90
13711;DHT22;6927;51.256;9.410;2022-12-11T12:01:42;-0.60;99.90
13711;DHT22;6927;51.256;9.410;2022-12-11T12:04:12;-0.60;99.90
13711;DHT22;6927;51.256;9.410;2022-12-11T12:37:22;-0.70;99.90
13711;DHT22;6927;51.256;9.410;2022-12-11T12:48:26;-0.70;99.90
13711;DHT22;6927;51.256;9.410;2022-12-11T12:50:52;-0.70;99.90
13711;DHT22;6927;51.256;9.410;2022-12-11T12:53:20;-0.80;99.90
13711;DHT22;6927;51.256;9.410;2022-12-11T12:55:48;-0.80;99.90
13711;DHT22;6927;51.256;9.410;2022-12-11T13:03:49;-0.80;99.90
13711;DHT22;6927;51.256;9.410;2022-12-11T13:06:36;-0.80;99.90
13711;DHT22;6927;51.256;9.410;2022-12-11T13:09:29;-0.70;99.90
13711;DHT22;6927;51.256;9.410;2022-12-11T13:11:55;-0.80;99.90
13711;DHT22;6927;51.256;9.410;2022-12-11T13:14:28;-0.70;99.90
13711;DHT22;6927;51.256;9.410;2022-12-11T13:17:22;-0.70;99.90
13711;DHT22;6927;51.256;9.410;2022-12-11T13:19:49;-0.60;99.90
13711;DHT22;6927;51.256;9.410;2022-12-11T13:22:26;-0.50;99.90
13711;DHT22;6927;51.256;9.410;2022-12-11T13:27:25;-0.60;99.90
13711;DHT22;6927;51.256;9.410;2022-12-11T13:32:32;-0.70;99.90
13711;DHT22;6927;51.256;9.410;2022-12-11T13:34:59;-0.70;99.90
13711;DHT22;6927;51.256;9.410;2022-12-11T13:37:40;-0.70;99.90
13711;DHT22;6927;51.256;9.410;2022-12-11T13:40:14;-0.60;99.90
13711;DHT22;6927;51.256;9.410;2022-12-11T13:45:42;-0.60;99.90
13711;DHT22;6927;51.256;9.410;2022-12-11T13:48:25;-0.60;99.90
13711;DHT22;6927;51.256;9.410;2022-12-11T13:50:55;-0.60;99.90
13711;DHT22;6927;51.256;9.410;2022-12-11T13:53:22;-0.60;99.90
13711;DHT22;6927;51.256;9.410;2022-12-11T13:56:02;-0.70;99.90
13711;DHT22;6927;51.256;9.410;2022-12-11T13:58:29;-0.70;99.90
13711;DHT22;6927;51.256;9.410;2022-12-11T14:01:19;-0.70;99.90
13711;DHT22;6927;51.256;9.410;2022-12-11T14:04:07;-0.70;99.90
13711;DHT22;6927;51.256;9.410;2022-12-11T14:06:35;-0.70;99.90
13711;DHT22;6927;51.256;9.410;2022-12-11T14:09:03;-0.70;99.90
13711;DHT22;6927;51.256;9.410;2022-12-11T14:11:40;-0.70;99.90
13711;DHT22;6927;51.256;9.410;2022-12-11T14:14:33;-0.70;99.90
13711;DHT22;6927;51.256;9.410;2022-12-11T14:17:11;-0.70;99.90
13711;DHT22;6927;51.256;9.410;2022-12-11T14:19:47;-0.60;99.90
13711;DHT22;6927;51.256;9.410;2022-12-11T14:22:21;-0.60;99.90
13711;DHT22;6927;51.256;9.410;2022-12-11T14:24:56;-0.60;99.90
13711;DHT22;6927;51.256;9.410;2022-12-11T14:27:26;-0.60;99.90
13711;DHT22;6927;51.256;9.410;2022-12-11T14:29:52;-0.60;99.90
13711;DHT22;6927;51.256;9.410;2022-12-11T14:32:31;-0.60;99.90
13711;DHT22;6927;51.256;9.410;2022-12-11T14:35:22;-0.60;99.90
13711;DHT22;6927;51.256;9.410;2022-12-11T14:37:49;-0.60;99.90
13711;DHT22;6927;51.256;9.410;2022-12-11T14:40:18;-0.70;99.90
13711;DHT22;6927;51.256;9.410;2022-12-11T14:45:41;-0.70;99.90
13711;DHT22;6927;51.256;9.410;2022-12-11T14:48:22;-0.80;99.90
13711;DHT22;6927;51.256;9.410;2022-12-11T14:50:52;-0.70;99.90
13711;DHT22;6927;51.256;9.410;2022-12-11T14:53:23;-0.70;99.90
13711;DHT22;6927;51.256;9.410;2022-12-11T14:55:57;-0.70;99.90
13711;DHT22;6927;51.256;9.410;2022-12-11T14:58:27;-0.70;99.90
13711;DHT22;6927;51.256;9.410;2022-12-11T15:03:33;-0.70;99.90
13711;DHT22;6927;51.256;9.410;2022-12-11T15:06:17;-0.70;99.90
13711;DHT22;6927;51.256;9.410;2022-12-11T15:08:50;-0.70;99.90
13711;DHT22;6927;51.256;9.410;2022-12-11T15:11:17;-0.70;99.90
13711;DHT22;6927;51.256;9.410;2022-12-11T15:13:54;-0.80;99.90
13711;DHT22;6927;51.256;9.410;2022-12-11T15:16:42;-0.80;99.90
13711;DHT22;6927;51.256;9.410;2022-12-11T15:19:37;-0.70;99.90
13711;DHT22;6927;51.256;9.410;2022-12-11T15:22:42;-0.80;99.90
13711;DHT22;6927;51.256;9.410;2022-12-11T15:25:21;-0.80;99.90
13711;DHT22;6927;51.256;9.410;2022-12-11T15:27:57;-0.80;99.90
13711;DHT22;6927;51.256;9.410;2022-12-11T15:33:24;-0.70;99.90
13711;DHT22;6927;51.256;9.410;2022-12-11T15:36:17;-0.70;99.90
13711;DHT22;6927;51.256;9.410;2022-12-11T15:39:02;-0.70;99.90
13711;DHT22;6927;51.256;9.410;2022-12-11T15:41:36;-0.70;99.90
13711;DHT22;6927;51.256;9.410;2022-12-11T15:44:22;-0.70;99.90
13711;DHT22;6927;51.256;9.410;2022-12-11T15:47:30;-0.70;99.90
13711;DHT22;6927;51.256;9.410;2022-12-11T15:49:59;-0.80;99.90
13711;DHT22;6927;51.256;9.410;2022-12-11T15:52:30;-0.80;99.90
13711;DHT22;6927;51.256;9.410;2022-12-11T15:55:30;-0.70;99.90
13711;DHT22;6927;51.256;9.410;2022-12-11T16:01:03;-0.80;99.90
13711;DHT22;6927;51.256;9.410;2022-12-11T16:03:38;-0.80;99.90
13711;DHT22;6927;51.256;9.410;2022-12-11T16:06:14;-0.80;99.90
13711;DHT22;6927;51.256;9.410;2022-12-11T16:08:45;-0.80;99.90
13711;DHT22;6927;51.256;9.410;2022-12-11T16:11:17;-0.80;99.90
13711;DHT22;6927;51.256;9.410;2022-12-11T16:13:43;-0.80;99.90
13711;DHT22;6927;51.256;9.410;2022-12-11T16:16:09;-0.80;99.90
13711;DHT22;6927;51.256;9.410;2022-12-11T16:18:40;-0.80;99.90
13711;DHT22;6927;51.256;9.410;2022-12-11T16:21:27;-0.80;99.90
13711;DHT22;6927;51.256;9.410;2022-12-11T16:24:26;-0.80;99.90
13711;DHT22;6927;51.256;9.410;2022-12-11T16:26:58;-0.80;99.90
13711;DHT22;6927;51.256;9.410;2022-12-11T16:29:32;-0.80;99.90
13711;DHT22;6927;51.256;9.410;2022-12-11T16:32:16;-0.80;99.90
13711;DHT22;6927;51.256;9.410;2022-12-11T16:34:41;-0.80;99.90
13711;DHT22;6927;51.256;9.410;2022-12-11T16:37:08;-0.80;99.90
13711;DHT22;6927;51.256;9.410;2022-12-11T16:39:41;-0.80;99.90
13711;DHT22;6927;51.256;9.410;2022-12-11T16:42:13;-0.80;99.90
13711;DHT22;6927;51.256;9.410;2022-12-11T16:44:49;-0.70;99.90
13711;DHT22;6927;51.256;9.410;2022-12-11T16:47:21;-0.80;99.90
13711;DHT22;6927;51.256;9.410;2022-12-11T16:49:57;-0.70;99.90
13711;DHT22;6927;51.256;9.410;2022-12-11T16:52:35;-0.70;99.90
13711;DHT22;6927;51.256;9.410;2022-12-11T16:55:01;-0.60;99.90
13711;DHT22;6927;51.256;9.410;2022-12-11T16:57:27;-0.70;99.90
13711;DHT22;6927;51.256;9.410;2022-12-11T16:59:52;-0.70;99.90
13711;DHT22;6927;51.256;9.410;2022-12-11T17:02:18;-0.70;99.90
13711;DHT22;6927;51.256;9.410;2022-12-11T17:04:54;-0.70;99.90
13711;DHT22;6927;51.256;9.410;2022-12-11T17:10:23;-0.70;99.90
13711;DHT22;6927;51.256;9.410;2022-12-11T17:15:49;-0.70;99.90
13711;DHT22;6927;51.256;9.410;2022-12-11T17:18:34;-0.70;99.90
13711;DHT22;6927;51.256;9.410;2022-12-11T17:21:22;-0.70;99.90
13711;DHT22;6927;51.256;9.410;2022-12-11T17:23:49;-0.70;99.90
13711;DHT22;6927;51.256;9.410;2022-12-11T17:26:35;-0.80;99.90
13711;DHT22;6927;51.256;9.410;2022-12-11T17:29:27;-0.70;99.90
13711;DHT22;6927;51.256;9.410;2022-12-11T17:31:56;-0.70;99.90
13711;DHT22;6927;51.256;9.410;2022-12-11T17:34:34;-0.70;99.90
13711;DHT22;6927;51.256;9.410;2022-12-11T17:37:12;-0.70;99.90
13711;DHT22;6927;51.256;9.410;2022-12-11T17:39:37;-0.70;99.90
13711;DHT22;6927;51.256;9.410;2022-12-11T17:48:10;-0.80;99.90
13711;DHT22;6927;51.256;9.410;2022-12-11T17:51:07;-0.70;99.90
13711;DHT22;6927;51.256;9.410;2022-12-11T17:53:53;-0.70;99.90
13711;DHT22;6927;51.256;9.410;2022-12-11T18:00:16;-0.70;99.90
13711;DHT22;6927;51.256;9.410;2022-12-11T18:08:40;-0.70;99.90
13711;DHT22;6927;51.256;9.410;2022-12-11T18:22:00;-0.70;99.90
13711;DHT22;6927;51.256;9.410;2022-12-11T19:04:52;-0.80;99.90
13711;DHT22;6927;51.256;9.410;2022-12-11T19:07:48;-0.70;99.90
13711;DHT22;6927;51.256;9.410;2022-12-11T19:10:53;-0.70;99.90
13711;DHT22;6927;51.256;9.410;2022-12-11T19:13:40;-0.70;99.90
13711;DHT22;6927;51.256;9.410;2022-12-11T19:42:39;-0.80;99.90
13711;DHT22;6927;51.256;9.410;2022-12-11T19:45:05;-0.80;99.90
13711;DHT22;6927;51.256;9.410;2022-12-11T19:47:35;-0.80;99.90
13711;DHT22;6927;51.256;9.410;2022-12-11T19:50:03;-0.80;99.90
13711;DHT22;6927;51.256;9.410;2022-12-11T19:52:29;-0.80;99.90
13711;DHT22;6927;51.256;9.410;2022-12-11T19:55:00;-0.80;99.90
13711;DHT22;6927;51.256;9.410;2022-12-11T19:57:35;-0.70;99.90
13711;DHT22;6927;51.256;9.410;2022-12-11T20:00:11;-0.80;99.90
13711;DHT22;6927;51.256;9.410;2022-12-11T20:02:37;-0.80;99.90
13711;DHT22;6927;51.256;9.410;2022-12-11T20:05:03;-0.80;99.90
13711;DHT22;6927;51.256;9.410;2022-12-11T20:07:37;-0.80;99.90
13711;DHT22;6927;51.256;9.410;2022-12-11T20:10:03;-0.80;99.90
13711;DHT22;6927;51.256;9.410;2022-12-11T20:12:29;-0.80;99.90
13711;DHT22;6927;51.256;9.410;2022-12-11T20:15:15;-0.80;99.90
13711;DHT22;6927;51.256;9.410;2022-12-11T20:18:00;-0.90;99.90
13711;DHT22;6927;51.256;9.410;2022-12-11T20:20:31;-0.80;99.90
13711;DHT22;6927;51.256;9.410;2022-12-11T20:23:06;-0.80;99.90
13711;DHT22;6927;51.256;9.410;2022-12-11T20:25:45;-0.80;99.90
13711;DHT22;6927;51.256;9.410;2022-12-11T20:28:10;-0.80;99.90
13711;DHT22;6927;51.256;9.410;2022-12-11T20:30:51;-0.80;99.90
13711;DHT22;6927;51.256;9.410;2022-12-11T20:33:20;-0.90;99.90
13711;DHT22;6927;51.256;9.410;2022-12-11T20:35:46;-0.80;99.90
13711;DHT22;6927;51.256;9.410;2022-12-11T20:38:12;-0.80;99.90
13711;DHT22;6927;51.256;9.410;2022-12-11T20:40:38;-0.90;99.90
13711;DHT22;6927;51.256;9.410;2022-12-11T20:43:07;-0.80;99.90
13711;DHT22;6927;51.256;9.410;2022-12-11T20:45:33;-0.80;99.90
13711;DHT22;6927;51.256;9.410;2022-12-11T20:47:59;-0.90;99.90
13711;DHT22;6927;51.256;9.410;2022-12-11T20:50:24;-0.90;99.90
13711;DHT22;6927;51.256;9.410;2022-12-11T20:52:50;-0.80;99.90
13711;DHT22;6927;51.256;9.410;2022-12-11T20:55:25;-0.90;99.90
13711;DHT22;6927;51.256;9.410;2022-12-11T20:57:55;-0.90;99.90
13711;DHT22;6927;51.256;9.410;2022-12-11T21:00:24;-0.90;99.90
13711;DHT22;6927;51.256;9.410;2022-12-11T21:02:51;-0.90;99.90
13711;DHT22;6927;51.256;9.410;2022-12-11T21:05:23;-0.80;99.90
13711;DHT22;6927;51.256;9.410;2022-12-11T21:07:51;-0.90;99.90
13711;DHT22;6927;51.256;9.410;2022-12-11T21:10:17;-0.90;99.90
13711;DHT22;6927;51.256;9.410;2022-12-11T21:12:43;-0.90;99.90
13711;DHT22;6927;51.256;9.410;2022-12-11T21:15:11;-0.90;99.90
13711;DHT22;6927;51.256;9.410;2022-12-11T21:17:37;-0.90;99.90
13711;DHT22;6927;51.256;9.410;2022-12-11T21:20:05;-0.90;99.90
13711;DHT22;6927;51.256;9.410;2022-12-11T21:22:32;-0.90;99.90
13711;DHT22;6927;51.256;9.410;2022-12-11T21:24:58;-0.90;99.90
13711;DHT22;6927;51.256;9.410;2022-12-11T21:27:32;-0.90;99.90
13711;DHT22;6927;51.256;9.410;2022-12-11T21:30:02;-0.90;99.90
13711;DHT22;6927;51.256;9.410;2022-12-11T21:32:36;-0.90;99.90
13711;DHT22;6927;51.256;9.410;2022-12-11T21:35:07;-0.90;99.90
13711;DHT22;6927;51.256;9.410;2022-12-11T21:37:36;-0.90;99.90
13711;DHT22;6927;51.256;9.410;2022-12-11T21:40:14;-0.90;99.90
13711;DHT22;6927;51.256;9.410;2022-12-11T21:42:42;-0.90;99.90
13711;DHT22;6927;51.256;9.410;2022-12-11T21:45:08;-0.90;99.90
13711;DHT22;6927;51.256;9.410;2022-12-11T21:47:40;-0.90;99.90
13711;DHT22;6927;51.256;9.410;2022-12-11T21:50:06;-0.90;99.90
13711;DHT22;6927;51.256;9.410;2022-12-11T21:52:32;-0.90;99.90
13711;DHT22;6927;51.256;9.410;2022-12-11T21:54:57;-0.90;99.90
13711;DHT22;6927;51.256;9.410;2022-12-11T21:57:23;-0.90;99.90
13711;DHT22;6927;51.256;9.410;2022-12-11T21:59:49;-0.90;99.90
13711;DHT22;6927;51.256;9.410;2022-12-11T22:02:15;-0.90;99.90
13711;DHT22;6927;51.256;9.410;2022-12-11T22:04:41;-0.90;99.90
13711;DHT22;6927;51.256;9.410;2022-12-11T22:07:07;-1.00;99.90
13711;DHT22;6927;51.256;9.410;2022-12-11T22:09:35;-1.00;99.90